Main page
METAR-TAF:

METAR-TAF

Airports :

Sawyer International Airport

Marquette, Michigan, United States

latitude: 46-21-13N, longitude: 087-23-45W, elevation: 1220 ft

Current weather observation

The report was made 47 minutes ago, at 18:46 UTC
Wind 7 mph from the North with gusts up to 16 mph
Temperature 36°F
Humidity 40%
Pressure 30.31 in. Hg
Visibility: 10 miles
Clear sky

METAR: KSAW 241846Z 36006G14KT 10SM CLR 02/M10 A3031

Time: 15:33 (19:33 UTC)

Forecast

The report was made 2 hours and 13 minutes ago, at 17:20 UTC
Forecast valid from 24 at 18 UTC to 25 at 18 UTC
Wind 10 mph from the Northeast
Visibility: 6 miles
Clear sky
From 25 at 0200 UTC
Wind 0 mph from the North
Visibility: 6 miles
Clear sky
From 25 at 1200 UTC
Wind 8 mph from the South/Southwest
Visibility: 6 miles
Clear sky

TAF: KSAW 241720Z 2418/2518 04009KT P6SM SKC FM250200 00000KT P6SM SKC FM251200 21007KT P6SM SKC

Weather observations and forecasts of more than 4000 airports (METAR and TAF reports).

The available stations are represented by yellow and red dots on the map.

Hover mouse over dot to see the name of the station.

Then click to see weather observations and forecasts.

To change the map : click on the green buttons with a black cross to zoom in, on the green button with a dash to zoom out, or on the green arrows for adjacent maps.


METAR-TAF: